Time;durP1;ratioP1;P1;durP2;ratioP2;P2;SDS_P1;SDS_P2;PMS_P1;PMS_P2;Temp;Humidity;BMP_temperature;BMP_pressure;BME280_temperature;BME280_humidity;BME280_pressure;Samples;Min_cycle;Max_cycle;Signal;HPM_P1;HPM_P2
2021/09/12 00:02:38;;;;;;;6.43;4.27;;;16.80;99.90;;;;;;5032481;28;20395;-73
2021/09/12 00:05:24;;;;;;;5.80;4.30;;;16.70;99.90;;;;;;5031904;28;20503;-73
2021/09/12 00:08:10;;;;;;;4.80;4.07;;;16.80;99.90;;;;;;5032860;28;20502;-73
2021/09/12 00:10:57;;;;;;;5.50;4.13;;;16.80;99.90;;;;;;5030265;28;20479;-73
2021/09/12 00:13:43;;;;;;;9.77;4.60;;;16.80;99.90;;;;;;5030453;28;20455;-72
2021/09/12 00:16:28;;;;;;;6.43;5.10;;;16.90;99.90;;;;;;5031901;28;20575;-73
2021/09/12 00:19:14;;;;;;;7.10;6.17;;;16.90;99.90;;;;;;5032489;28;21016;-73
2021/09/12 00:21:59;;;;;;;39.13;7.50;;;16.90;99.90;;;;;;5028755;28;20434;-74
2021/09/12 00:24:45;;;;;;;14.03;7.60;;;16.90;99.90;;;;;;5011992;28;20781;-73
2021/09/12 00:27:32;;;;;;;11.20;7.20;;;16.80;99.90;;;;;;5014957;28;20468;-73
2021/09/12 00:30:18;;;;;;;9.70;6.50;;;16.70;99.90;;;;;;5012200;28;20941;-73
2021/09/12 00:33:04;;;;;;;14.37;7.80;;;16.60;99.90;;;;;;5011907;28;20895;-73
2021/09/12 00:35:49;;;;;;;8.70;7.00;;;16.60;99.90;;;;;;5015926;28;20454;-73
2021/09/12 00:38:35;;;;;;;12.40;8.27;;;16.70;99.90;;;;;;5042858;28;21103;-73
2021/09/12 00:41:21;;;;;;;20.20;6.60;;;16.70;99.90;;;;;;5038136;28;20978;-73
2021/09/12 00:44:10;;;;;;;9.10;6.87;;;16.80;99.90;;;;;;5031329;28;20523;-72
2021/09/12 00:46:56;;;;;;;15.70;6.90;;;16.80;99.90;;;;;;5031647;28;20419;-73
2021/09/12 00:49:43;;;;;;;10.07;7.30;;;16.90;99.90;;;;;;5016601;28;20448;-73
2021/09/12 00:52:31;;;;;;;9.67;7.40;;;16.80;99.90;;;;;;5011743;28;20442;-72
2021/09/12 00:55:17;;;;;;;15.73;7.20;;;16.80;99.90;;;;;;5012439;28;20881;-73
2021/09/12 00:58:03;;;;;;;13.40;7.00;;;16.60;99.90;;;;;;5031593;28;20507;-72
2021/09/12 01:00:51;;;;;;;9.50;7.83;;;16.50;99.90;;;;;;5031417;28;20441;-72
2021/09/12 01:03:37;;;;;;;9.40;7.13;;;16.60;99.90;;;;;;5031452;28;20400;-72
2021/09/12 01:06:23;;;;;;;11.70;8.03;;;16.60;99.90;;;;;;5034765;28;20432;-72
2021/09/12 01:09:08;;;;;;;10.30;7.70;;;16.70;99.90;;;;;;5035235;28;20817;-73
2021/09/12 01:11:58;;;;;;;15.20;9.17;;;16.80;99.90;;;;;;5031997;28;20605;-73
2021/09/12 01:14:43;;;;;;;10.93;7.30;;;16.90;99.90;;;;;;5031255;28;20416;-72
2021/09/12 01:17:31;;;;;;;20.37;9.13;;;17.00;99.90;;;;;;5012729;28;20428;-73
2021/09/12 01:20:16;;;;;;;25.50;10.17;;;17.00;99.90;;;;;;5011523;28;20441;-74
2021/09/12 01:23:03;;;;;;;12.40;9.00;;;17.10;99.90;;;;;;5011282;28;20989;-73
2021/09/12 01:25:56;;;;;;;31.97;8.57;;;17.00;99.90;;;;;;5012782;28;20995;-73
2021/09/12 01:28:43;;;;;;;40.90;9.23;;;17.10;99.90;;;;;;5011689;28;20485;-73
2021/09/12 01:31:30;;;;;;;11.00;7.67;;;17.00;99.90;;;;;;5011653;28;20943;-73
2021/09/12 01:34:16;;;;;;;28.23;7.87;;;17.00;99.90;;;;;;5011068;28;20404;-73
2021/09/12 01:37:02;;;;;;;21.20;7.80;;;17.00;99.90;;;;;;5032638;28;20926;-72
2021/09/12 01:39:48;;;;;;;24.13;7.83;;;17.00;99.90;;;;;;5039059;28;20442;-72
2021/09/12 01:42:35;;;;;;;10.50;8.33;;;17.00;99.90;;;;;;5011514;28;20410;-72
2021/09/12 01:45:21;;;;;;;14.33;7.50;;;17.00;99.90;;;;;;5011113;28;20723;-73
2021/09/12 01:48:07;;;;;;;11.33;7.40;;;17.00;99.90;;;;;;5011346;28;20588;-72
2021/09/12 01:50:53;;;;;;;9.70;6.90;;;16.90;99.90;;;;;;5012388;28;20520;-72
2021/09/12 01:53:39;;;;;;;13.60;7.30;;;16.90;99.90;;;;;;5015067;28;20401;-73
2021/09/12 01:56:24;;;;;;;13.60;7.30;;;16.90;99.90;;;;;;5028304;28;20423;-72
2021/09/12 01:59:11;;;;;;;13.40;7.83;;;16.90;99.90;;;;;;5034509;28;20981;-72
2021/09/12 02:01:57;;;;;;;12.30;7.83;;;16.80;99.90;;;;;;5034666;28;20765;-73
2021/09/12 02:04:42;;;;;;;12.90;7.97;;;16.80;99.90;;;;;;5034218;28;20816;-72
2021/09/12 02:07:27;;;;;;;12.40;8.30;;;16.80;99.90;;;;;;5040355;28;20463;-72
2021/09/12 02:10:13;;;;;;;7.27;6.57;;;16.80;99.90;;;;;;5023238;28;20564;-73
2021/09/12 02:12:59;;;;;;;8.00;6.57;;;16.80;99.90;;;;;;5034548;28;20521;-72
2021/09/12 02:15:46;;;;;;;13.13;6.83;;;16.80;99.90;;;;;;5033905;28;20429;-73
2021/09/12 02:18:31;;;;;;;18.57;8.33;;;16.80;99.90;;;;;;5034220;28;20409;-72
2021/09/12 02:21:17;;;;;;;8.07;7.03;;;16.80;99.90;;;;;;5014463;28;20486;-72
2021/09/12 02:24:03;;;;;;;15.13;7.50;;;16.70;99.90;;;;;;5017308;28;20536;-73
2021/09/12 02:26:49;;;;;;;15.23;7.30;;;16.70;99.90;;;;;;5014092;28;20499;-72
2021/09/12 02:29:34;;;;;;;81.03;8.03;;;16.60;99.90;;;;;;5014223;28;21017;-72
2021/09/12 02:32:21;;;;;;;28.63;7.00;;;16.50;99.90;;;;;;5013947;28;20425;-72
2021/09/12 02:35:08;;;;;;;19.70;7.60;;;16.20;99.90;;;;;;5014102;28;20460;-72
2021/09/12 02:37:54;;;;;;;37.93;9.27;;;16.10;99.90;;;;;;5042175;28;20426;-72
2021/09/12 02:40:40;;;;;;;48.77;8.03;;;16.00;99.90;;;;;;5017634;28;20444;-73
2021/09/12 02:43:26;;;;;;;101.57;7.57;;;15.90;99.90;;;;;;5014131;28;20441;-72
2021/09/12 02:46:12;;;;;;;9.37;7.37;;;15.80;99.90;;;;;;5013926;28;20499;-73
2021/09/12 02:48:59;;;;;;;17.73;7.63;;;15.80;99.90;;;;;;5013515;28;20448;-72
2021/09/12 02:51:44;;;;;;;43.77;7.10;;;15.90;99.90;;;;;;5013988;28;20426;-72
2021/09/12 02:54:30;;;;;;;42.77;7.30;;;15.80;99.90;;;;;;5014176;28;21014;-73
2021/09/12 02:57:16;;;;;;;7.03;6.30;;;15.70;99.90;;;;;;5013869;28;20434;-72
2021/09/12 03:00:01;;;;;;;16.73;6.20;;;15.60;99.90;;;;;;5013512;28;20548;-73
2021/09/12 03:02:47;;;;;;;18.00;7.07;;;15.50;99.90;;;;;;5012936;28;20421;-72
2021/09/12 03:05:34;;;;;;;18.33;7.50;;;15.40;99.90;;;;;;5014157;28;20572;-73
2021/09/12 03:08:20;;;;;;;34.70;5.83;;;15.50;99.90;;;;;;5039230;28;20476;-74
2021/09/12 03:11:05;;;;;;;30.20;5.87;;;15.50;99.90;;;;;;5013957;28;20393;-74
2021/09/12 03:13:51;;;;;;;19.47;5.80;;;15.30;99.90;;;;;;5013546;28;20400;-73
2021/09/12 03:16:37;;;;;;;15.27;6.10;;;15.30;99.90;;;;;;5013106;28;20977;-74
2021/09/12 03:19:23;;;;;;;7.23;5.83;;;15.40;99.90;;;;;;5029584;28;20928;-73
2021/09/12 03:22:10;;;;;;;20.43;6.70;;;15.40;99.90;;;;;;5032912;28;20429;-73
2021/09/12 03:24:56;;;;;;;19.93;6.53;;;15.50;99.90;;;;;;5029342;28;20412;-74
2021/09/12 03:27:41;;;;;;;16.03;7.37;;;15.60;99.90;;;;;;5032799;28;20400;-73
2021/09/12 03:30:27;;;;;;;14.27;6.80;;;15.70;99.90;;;;;;5033009;28;20419;-74
2021/09/12 03:33:14;;;;;;;218.83;8.33;;;15.60;99.90;;;;;;5032670;28;20429;-73
2021/09/12 03:36:00;;;;;;;65.53;7.03;;;15.60;99.90;;;;;;5033211;28;20529;-74
2021/09/12 03:38:47;;;;;;;113.57;7.97;;;15.60;99.90;;;;;;5032930;28;20428;-73
2021/09/12 03:41:33;;;;;;;25.17;6.30;;;15.50;99.90;;;;;;5032776;28;20425;-74
2021/09/12 03:44:18;;;;;;;10.00;6.80;;;15.60;99.90;;;;;;5032469;28;20564;-73
2021/09/12 03:47:04;;;;;;;12.63;6.33;;;15.60;99.90;;;;;;5031095;28;20426;-73
2021/09/12 03:49:50;;;;;;;43.57;7.40;;;15.70;99.90;;;;;;5032389;28;20451;-73
2021/09/12 03:52:35;;;;;;;31.43;5.73;;;15.80;99.90;;;;;;5027895;28;20794;-74
2021/09/12 03:55:23;;;;;;;45.80;6.03;;;15.80;99.90;;;;;;5032279;28;20412;-74
2021/09/12 03:58:08;;;;;;;66.73;6.10;;;15.80;99.90;;;;;;5032423;28;20397;-74
2021/09/12 04:00:54;;;;;;;24.30;5.57;;;15.70;99.90;;;;;;5032254;28;20772;-74
2021/09/12 04:03:40;;;;;;;18.83;5.20;;;15.60;99.90;;;;;;5032455;28;20769;-74
2021/09/12 04:06:25;;;;;;;16.13;5.80;;;15.50;99.90;;;;;;5023889;28;20408;-74
2021/09/12 04:09:11;;;;;;;29.23;5.10;;;15.40;99.90;;;;;;5038674;28;20837;-74
2021/09/12 04:11:58;;;;;;;53.40;5.90;;;15.30;99.90;;;;;;5051853;28;20481;-74
2021/09/12 04:14:44;;;;;;;28.73;5.70;;;15.40;99.90;;;;;;5051799;28;20503;-74
2021/09/12 04:17:30;;;;;;;69.93;6.00;;;15.30;99.90;;;;;;5027427;28;20490;-74
2021/09/12 04:20:15;;;;;;;80.47;6.50;;;15.30;99.90;;;;;;5012360;28;20438;-74
2021/09/12 04:23:01;;;;;;;13.87;5.00;;;15.30;99.90;;;;;;5021223;28;20452;-74
2021/09/12 04:25:46;;;;;;;35.03;5.27;;;15.30;99.90;;;;;;5031784;28;20532;-74
2021/09/12 04:28:33;;;;;;;68.90;5.30;;;15.30;99.90;;;;;;5031631;28;20479;-75
2021/09/12 04:31:19;;;;;;;27.97;5.03;;;15.20;99.90;;;;;;5032021;28;20892;-74
2021/09/12 04:34:05;;;;;;;5.20;4.70;;;15.20;99.90;;;;;;5031631;28;20439;-74
2021/09/12 04:36:50;;;;;;;7.13;4.60;;;15.20;99.90;;;;;;5033666;28;20424;-74
2021/09/12 04:39:36;;;;;;;287.97;7.90;;;15.30;99.90;;;;;;5047122;28;20414;-74
2021/09/12 04:42:22;;;;;;;203.70;6.53;;;15.40;99.90;;;;;;5051757;28;20441;-74
2021/09/12 04:45:10;;;;;;;248.07;6.13;;;15.40;99.90;;;;;;5051198;28;20938;-74
2021/09/12 04:47:55;;;;;;;109.90;5.80;;;15.20;99.90;;;;;;5051478;28;20452;-73
2021/09/12 04:50:41;;;;;;;154.40;6.83;;;15.10;99.90;;;;;;5051358;28;20543;-74
2021/09/12 04:53:27;;;;;;;32.33;4.60;;;15.00;99.90;;;;;;5028724;28;20586;-74
2021/09/12 04:56:12;;;;;;;72.47;4.70;;;15.10;99.90;;;;;;5031099;28;20420;-73
2021/09/12 04:58:58;;;;;;;14.17;4.17;;;15.20;99.90;;;;;;5031474;28;20432;-74
2021/09/12 05:01:44;;;;;;;11.30;3.80;;;15.20;99.90;;;;;;5031400;28;20903;-73
2021/09/12 05:04:30;;;;;;;9.63;3.63;;;15.20;99.90;;;;;;5031295;28;20392;-75
2021/09/12 05:07:16;;;;;;;6.30;3.87;;;15.10;99.90;;;;;;5025302;28;20448;-73
2021/09/12 05:10:01;;;;;;;4.77;4.10;;;15.10;99.90;;;;;;5050471;28;20843;-73
2021/09/12 05:12:47;;;;;;;4.03;3.63;;;15.00;99.90;;;;;;5051146;28;20484;-73
2021/09/12 05:15:32;;;;;;;39.63;5.30;;;15.10;99.90;;;;;;5035560;28;20421;-73
2021/09/12 05:18:19;;;;;;;7.63;4.33;;;15.10;99.90;;;;;;5011934;28;20448;-73
2021/09/12 05:21:05;;;;;;;30.33;4.20;;;15.10;99.90;;;;;;5015197;28;20456;-73
2021/09/12 05:23:51;;;;;;;25.30;4.83;;;15.20;99.90;;;;;;5011600;28;20957;-73
2021/09/12 05:26:36;;;;;;;23.77;3.90;;;15.20;99.90;;;;;;5014004;28;20560;-73
2021/09/12 05:29:23;;;;;;;17.37;3.93;;;15.20;99.90;;;;;;5015079;28;20447;-74
2021/09/12 05:32:09;;;;;;;12.53;3.80;;;15.10;99.90;;;;;;5015532;28;20421;-73
2021/09/12 05:34:56;;;;;;;78.10;5.10;;;15.00;99.90;;;;;;5015099;28;20433;-74
2021/09/12 05:37:42;;;;;;;17.13;3.10;;;15.10;99.90;;;;;;5034183;28;20567;-74
2021/09/12 05:40:28;;;;;;;24.70;4.50;;;15.10;99.90;;;;;;5054763;28;20465;-74
2021/09/12 05:43:14;;;;;;;45.20;5.10;;;14.90;99.90;;;;;;5054855;28;20389;-74
2021/09/12 05:46:00;;;;;;;34.50;4.40;;;14.80;99.90;;;;;;5054339;28;20441;-74
2021/09/12 05:48:46;;;;;;;40.50;4.23;;;14.90;99.90;;;;;;5054741;28;20445;-73
2021/09/12 05:51:33;;;;;;;23.10;3.50;;;14.80;99.90;;;;;;5039045;28;21032;-73
2021/09/12 05:54:19;;;;;;;4.27;3.50;;;14.70;99.90;;;;;;5034737;28;20421;-74
2021/09/12 05:57:05;;;;;;;3.90;3.50;;;14.80;99.90;;;;;;5034501;28;20781;-74
2021/09/12 05:59:50;;;;;;;7.70;2.90;;;14.90;99.90;;;;;;5034636;28;20444;-73
2021/09/12 06:02:36;;;;;;;16.83;2.30;;;15.00;99.90;;;;;;5034441;28;20420;-74
2021/09/12 06:05:22;;;;;;;60.77;3.07;;;15.10;99.90;;;;;;5029959;28;20509;-74
2021/09/12 06:08:09;;;;;;;3.70;2.80;;;15.00;99.90;;;;;;5042418;28;20436;-74
2021/09/12 06:10:55;;;;;;;11.17;2.60;;;15.10;99.90;;;;;;5034446;28;20403;-74
2021/09/12 06:13:41;;;;;;;3.80;2.63;;;15.10;99.90;;;;;;5030091;28;20411;-73
2021/09/12 06:16:26;;;;;;;3.80;3.20;;;15.20;99.90;;;;;;5014852;28;20413;-74
2021/09/12 06:19:12;;;;;;;7.40;2.70;;;15.30;99.90;;;;;;5014290;28;20541;-74
2021/09/12 06:21:58;;;;;;;2.63;2.27;;;15.30;99.90;;;;;;5019295;28;20393;-73
2021/09/12 06:24:45;;;;;;;3.37;2.60;;;15.40;99.90;;;;;;5014091;28;20436;-74
2021/09/12 06:27:30;;;;;;;13.23;3.50;;;15.50;99.90;;;;;;5014413;28;20400;-73
2021/09/12 06:30:18;;;;;;;26.93;3.10;;;15.50;99.90;;;;;;5014194;28;20448;-74
2021/09/12 06:33:04;;;;;;;5.83;3.00;;;15.60;99.90;;;;;;5014371;28;20425;-73
2021/09/12 06:35:50;;;;;;;4.33;2.83;;;15.40;99.90;;;;;;5021837;28;20427;-73
2021/09/12 06:38:35;;;;;;;6.23;3.30;;;15.50;99.90;;;;;;5044375;28;20542;-74
2021/09/12 06:41:22;;;;;;;60.57;4.43;;;15.50;99.90;;;;;;5053682;28;20813;-73
2021/09/12 06:44:08;;;;;;;79.10;4.27;;;15.40;99.90;;;;;;5053847;28;20892;-73
2021/09/12 06:46:54;;;;;;;16.83;3.20;;;15.30;99.90;;;;;;5053443;28;20399;-74
2021/09/12 06:49:39;;;;;;;9.40;3.73;;;15.10;99.90;;;;;;5046477;28;20549;-73
2021/09/12 06:52:25;;;;;;;4.80;4.30;;;15.20;99.90;;;;;;5013953;28;20422;-73
2021/09/12 06:55:11;;;;;;;46.87;4.40;;;15.30;99.90;;;;;;5013718;28;20388;-73
2021/09/12 06:57:58;;;;;;;37.83;4.43;;;15.40;99.90;;;;;;5014186;28;20418;-73
2021/09/12 07:00:44;;;;;;;50.00;4.50;;;15.30;99.90;;;;;;5014094;28;20997;-74
2021/09/12 07:03:30;;;;;;;62.27;4.87;;;15.20;99.90;;;;;;5013944;28;20504;-73
2021/09/12 07:06:15;;;;;;;325.13;8.57;;;15.30;99.90;;;;;;5029945;28;20542;-73
2021/09/12 07:09:01;;;;;;;89.87;4.87;;;15.30;99.90;;;;;;5033595;28;20814;-73
2021/09/12 07:11:46;;;;;;;105.03;5.20;;;15.30;99.90;;;;;;5033319;28;20375;-73
2021/09/12 07:14:33;;;;;;;41.83;5.10;;;15.30;99.90;;;;;;5013103;28;20444;-73
2021/09/12 07:17:19;;;;;;;12.23;4.10;;;15.40;99.90;;;;;;5013485;28;20421;-74
2021/09/12 07:20:05;;;;;;;10.70;4.83;;;15.50;99.90;;;;;;5018427;28;20511;-73
2021/09/12 07:22:51;;;;;;;6.57;4.27;;;15.50;99.90;;;;;;5033124;28;20421;-74
2021/09/12 07:25:36;;;;;;;4.53;4.10;;;15.60;99.90;;;;;;5032606;28;20472;-73
2021/09/12 07:28:22;;;;;;;6.27;4.63;;;15.60;99.90;;;;;;5033127;28;20496;-73
2021/09/12 07:31:09;;;;;;;9.70;4.03;;;15.80;99.90;;;;;;5032916;28;20925;-73
2021/09/12 07:33:54;;;;;;;4.10;3.70;;;15.90;99.90;;;;;;5031257;28;20395;-73
2021/09/12 07:36:40;;;;;;;7.03;3.40;;;16.10;99.90;;;;;;5037589;28;20426;-73
2021/09/12 07:39:26;;;;;;;4.00;3.60;;;16.20;99.90;;;;;;5041783;28;20406;-73
2021/09/12 07:42:11;;;;;;;4.27;3.70;;;16.40;99.90;;;;;;5053078;28;20498;-74
2021/09/12 07:44:57;;;;;;;4.67;3.93;;;16.60;99.90;;;;;;5052413;28;20491;-73
2021/09/12 07:47:44;;;;;;;4.37;3.83;;;16.70;99.90;;;;;;5052679;28;20800;-73
2021/09/12 07:50:30;;;;;;;7.77;5.40;;;16.90;99.90;;;;;;5019801;28;20481;-74
2021/09/12 07:53:15;;;;;;;6.33;4.87;;;16.90;99.90;;;;;;5012687;28;20400;-73
2021/09/12 07:56:01;;;;;;;4.87;4.30;;;17.10;99.90;;;;;;5012524;28;20517;-73
2021/09/12 07:58:46;;;;;;;6.10;5.43;;;17.30;99.90;;;;;;5012773;28;20476;-73
2021/09/12 08:01:32;;;;;;;8.20;6.43;;;17.40;99.90;;;;;;5011788;28;20389;-74
2021/09/12 08:04:19;;;;;;;9.80;6.80;;;17.70;99.90;;;;;;5015257;28;20791;-73
2021/09/12 08:07:05;;;;;;;7.37;6.57;;;17.90;99.90;;;;;;5038313;28;20924;-73
2021/09/12 08:09:50;;;;;;;8.97;6.90;;;18.00;99.90;;;;;;5049657;28;20450;-73
2021/09/12 08:12:36;;;;;;;13.83;6.30;;;18.10;99.90;;;;;;5015610;28;20813;-73
2021/09/12 08:15:22;;;;;;;6.77;5.73;;;18.30;99.90;;;;;;5012637;28;20444;-73
2021/09/12 08:18:07;;;;;;;8.70;5.93;;;18.30;99.90;;;;;;5012053;28;20431;-73
2021/09/12 08:20:54;;;;;;;10.10;6.27;;;18.40;99.90;;;;;;5032124;28;20407;-73
2021/09/12 08:23:40;;;;;;;10.70;5.90;;;18.50;99.90;;;;;;5032252;28;20396;-73
2021/09/12 08:26:26;;;;;;;6.70;5.87;;;18.70;99.90;;;;;;5031888;28;20750;-73
2021/09/12 08:29:11;;;;;;;15.00;5.70;;;18.80;99.90;;;;;;5031572;28;20516;-74
2021/09/12 08:31:57;;;;;;;12.80;5.80;;;19.00;99.90;;;;;;5031958;28;21215;-73
2021/09/12 08:34:42;;;;;;;11.50;4.80;;;19.00;99.90;;;;;;5019721;28;20942;-74
2021/09/12 08:37:29;;;;;;;6.20;5.40;;;19.10;99.90;;;;;;5043537;28;20432;-73
2021/09/12 08:40:15;;;;;;;6.20;4.90;;;19.20;99.90;;;;;;5051509;28;20522;-74
2021/09/12 08:43:01;;;;;;;7.30;4.60;;;19.30;99.90;;;;;;5024161;28;20587;-73
2021/09/12 08:45:48;;;;;;;8.67;4.80;;;19.40;99.90;;;;;;5011554;28;20521;-74
2021/09/12 08:48:35;;;;;;;5.30;4.03;;;19.50;99.90;;;;;;5011957;28;20944;-74
2021/09/12 08:51:23;;;;;;;7.33;4.17;;;19.70;99.90;;;;;;5011643;28;20489;-75
2021/09/12 08:54:10;;;;;;;8.50;4.33;;;19.80;99.90;;;;;;5012163;28;20398;-74
2021/09/12 08:56:55;;;;;;;7.30;5.10;;;20.00;99.90;;;;;;5018429;28;20431;-75
2021/09/12 08:59:41;;;;;;;7.20;4.37;;;20.00;99.90;;;;;;5037754;28;20492;-74
2021/09/12 09:02:28;;;;;;;7.77;4.07;;;20.10;99.90;;;;;;5037573;28;20437;-73
2021/09/12 09:05:14;;;;;;;7.13;4.40;;;20.30;99.90;;;;;;5018076;28;20438;-74
2021/09/12 09:08:08;;;;;;;6.50;4.10;;;20.40;99.90;;;;;;5017641;28;20432;-74
2021/09/12 09:10:55;;;;;;;5.63;4.00;;;20.50;99.90;;;;;;5020556;28;20454;-73
2021/09/12 09:13:41;;;;;;;5.60;3.70;;;20.50;99.90;;;;;;5028824;28;20445;-73
2021/09/12 09:16:28;;;;;;;6.17;3.00;;;20.70;99.90;;;;;;5023262;28;20431;-74
2021/09/12 09:19:14;;;;;;;4.47;2.60;;;20.60;99.90;;;;;;5032149;28;20447;-72
2021/09/12 09:22:00;;;;;;;5.30;4.00;;;20.70;99.90;;;;;;5037029;28;20450;-73
2021/09/12 09:24:45;;;;;;;5.87;3.80;;;20.80;99.90;;;;;;5030110;28;20401;-73
2021/09/12 09:27:51;;;;;;;4.67;3.07;;;20.80;99.90;;;;;;5051384;28;20444;-73
2021/09/12 09:30:49;;;;;;;4.70;2.90;;;21.00;99.90;;;;;;5011001;28;20554;-74
2021/09/12 09:33:35;;;;;;;4.10;2.43;;;21.10;99.90;;;;;;5011364;28;20532;-73
2021/09/12 09:36:20;;;;;;;6.87;2.60;;;21.00;99.90;;;;;;5019840;28;20455;-73
2021/09/12 09:39:06;;;;;;;5.37;2.90;;;21.10;99.90;;;;;;5018936;28;20445;-73
2021/09/12 09:41:52;;;;;;;6.17;3.90;;;21.40;99.90;;;;;;5031006;28;20433;-73
2021/09/12 09:44:56;;;;;;;6.63;4.13;;;21.30;99.90;;;;;;5025006;28;20446;-73
2021/09/12 09:47:44;;;;;;;6.60;3.93;;;21.00;99.90;;;;;;5032841;28;20545;-73
2021/09/12 09:50:30;;;;;;;5.63;3.87;;;20.70;99.90;;;;;;5034145;28;20463;-74
2021/09/12 09:53:15;;;;;;;5.83;3.07;;;20.40;99.90;;;;;;5017467;28;20925;-73
2021/09/12 09:56:02;;;;;;;6.60;5.00;;;20.40;99.90;;;;;;5013501;28;20422;-74
2021/09/12 09:58:50;;;;;;;6.13;3.73;;;20.60;99.90;;;;;;5011004;28;20448;-73
2021/09/12 10:01:37;;;;;;;7.30;4.73;;;20.70;99.90;;;;;;5014870;28;20935;-73
2021/09/12 10:04:26;;;;;;;4.67;3.47;;;20.80;99.90;;;;;;5021491;28;20446;-73
2021/09/12 10:07:13;;;;;;;3.97;2.80;;;21.00;99.90;;;;;;5037020;28;20430;-73
2021/09/12 10:09:59;;;;;;;3.50;2.17;;;21.30;99.90;;;;;;5048310;28;20450;-74
2021/09/12 10:12:48;;;;;;;3.83;2.40;;;21.40;99.00;;;;;;5052827;28;20804;-72
2021/09/12 10:15:36;;;;;;;7.20;3.30;;;21.60;97.20;;;;;;5039160;28;20455;-74
2021/09/12 10:18:27;;;;;;;4.53;2.70;;;21.70;94.20;;;;;;5034584;28;20494;-73
2021/09/12 10:21:27;;;;;;;8.10;2.17;;;21.80;94.50;;;;;;5034028;28;20516;-73
2021/09/12 10:24:12;;;;;;;5.30;3.53;;;21.90;84.70;;;;;;5034180;28;20397;-73
2021/09/12 10:26:58;;;;;;;4.33;2.40;;;22.00;88.80;;;;;;5034324;28;20830;-73
2021/09/12 10:29:51;;;;;;;6.33;2.77;;;22.20;93.10;;;;;;5028315;28;20478;-73
2021/09/12 10:32:37;;;;;;;5.30;3.00;;;22.40;90.70;;;;;;5034140;28;20903;-73
2021/09/12 10:35:26;;;;;;;6.97;3.10;;;22.30;85.80;;;;;;5033772;28;20469;-73
2021/09/12 10:38:13;;;;;;;3.57;3.13;;;22.20;89.90;;;;;;5035187;28;20413;-73
2021/09/12 10:41:12;;;;;;;3.70;2.43;;;22.10;89.70;;;;;;5033743;28;20786;-73
2021/09/12 10:43:58;;;;;;;4.80;2.80;;;22.40;90.00;;;;;;5029378;28;20450;-73
2021/09/12 10:46:43;;;;;;;5.43;2.33;;;22.40;78.80;;;;;;5016505;28;20538;-73
2021/09/12 10:49:30;;;;;;;5.50;3.30;;;22.60;80.90;;;;;;5034123;28;20419;-74
2021/09/12 10:52:49;;;;;;;5.93;3.43;;;22.80;81.50;;;;;;5033390;28;20399;-73
2021/09/12 10:55:59;;;;;;;5.40;2.83;;;23.20;81.50;;;;;;5033665;28;20422;-73
2021/09/12 10:58:48;;;;;;;5.60;3.70;;;23.30;73.70;;;;;;5033188;28;20570;-74
2021/09/12 11:01:36;;;;;;;7.23;3.43;;;23.70;74.80;;;;;;5027382;28;20499;-73
2021/09/12 11:04:29;;;;;;;4.90;2.93;;;23.80;74.20;;;;;;5013655;28;20444;-73
2021/09/12 11:07:15;;;;;;;3.93;2.70;;;23.80;71.60;;;;;;5032741;28;20428;-73
2021/09/12 11:10:02;;;;;;;4.07;2.90;;;23.50;72.40;;;;;;5033559;28;20877;-74
2021/09/12 11:12:58;;;;;;;3.47;2.27;;;23.60;73.70;;;;;;5033348;28;20756;-73
2021/09/12 11:15:43;;;;;;;4.17;2.83;;;23.50;67.80;;;;;;5028713;28;21094;-73
2021/09/12 11:18:42;;;;;;;5.27;2.90;;;23.40;71.80;;;;;;5033364;28;20929;-73
2021/09/12 11:21:32;;;;;;;6.63;2.60;;;23.20;64.40;;;;;;5033080;28;20431;-73
2021/09/12 11:24:21;;;;;;;3.97;2.20;;;22.80;65.50;;;;;;5032610;28;20768;-73
2021/09/12 11:27:09;;;;;;;4.00;2.10;;;22.40;73.80;;;;;;5033185;28;20393;-73
2021/09/12 11:29:54;;;;;;;3.70;1.90;;;22.30;72.30;;;;;;5032214;28;20452;-74
2021/09/12 11:32:50;;;;;;;3.90;2.40;;;22.30;73.20;;;;;;5030074;28;20421;-73
2021/09/12 11:35:36;;;;;;;3.47;2.77;;;22.20;70.70;;;;;;5031006;28;20397;-73
2021/09/12 11:38:27;;;;;;;8.30;3.07;;;22.10;75.00;;;;;;5034973;28;20396;-73
2021/09/12 11:41:12;;;;;;;3.67;2.70;;;21.80;73.50;;;;;;5032697;28;20417;-73
2021/09/12 11:44:02;;;;;;;4.63;3.00;;;21.80;76.10;;;;;;5032759;28;20429;-73
2021/09/12 11:46:50;;;;;;;4.07;3.00;;;21.80;75.10;;;;;;5028900;28;20425;-73
2021/09/12 11:49:36;;;;;;;4.60;2.73;;;22.00;75.20;;;;;;5032689;28;20443;-73
2021/09/12 11:52:31;;;;;;;4.23;2.80;;;21.80;73.20;;;;;;5032579;28;20496;-73
2021/09/12 11:55:23;;;;;;;6.93;2.93;;;21.70;76.00;;;;;;5032480;28;20936;-73
2021/09/12 11:58:10;;;;;;;5.00;2.80;;;21.90;79.80;;;;;;5032417;28;20781;-73
2021/09/12 12:00:57;;;;;;;4.70;3.13;;;22.10;82.50;;;;;;5029114;28;20823;-73
2021/09/12 12:03:42;;;;;;;5.97;3.23;;;22.30;74.00;;;;;;5032180;28;20426;-73
2021/09/12 12:06:29;;;;;;;4.90;2.70;;;22.50;74.00;;;;;;5033026;28;20406;-72
2021/09/12 12:09:17;;;;;;;5.63;3.10;;;22.80;76.40;;;;;;5037839;28;20478;-73
2021/09/12 12:12:07;;;;;;;7.63;3.10;;;22.90;73.50;;;;;;5052291;28;21061;-73
2021/09/12 12:14:55;;;;;;;3.63;2.60;;;23.00;73.00;;;;;;5043275;28;20422;-73
2021/09/12 12:17:53;;;;;;;5.17;3.10;;;23.30;68.40;;;;;;5012466;28;20911;-73
2021/09/12 12:20:39;;;;;;;3.83;2.50;;;23.50;69.00;;;;;;5012103;28;20446;-73
2021/09/12 12:23:27;;;;;;;5.40;3.03;;;23.90;71.10;;;;;;5012443;28;20837;-73
2021/09/12 12:26:18;;;;;;;8.20;3.03;;;24.10;65.50;;;;;;5011963;28;20940;-73
2021/09/12 12:29:04;;;;;;;5.90;3.40;;;23.80;64.30;;;;;;5012300;28;20461;-73
2021/09/12 12:31:50;;;;;;;4.80;3.00;;;23.10;66.70;;;;;;5029885;28;20757;-73
2021/09/12 12:34:43;;;;;;;4.50;3.30;;;22.90;73.00;;;;;;5031196;28;20733;-73
2021/09/12 12:37:43;;;;;;;4.87;2.87;;;22.90;75.10;;;;;;5037888;28;20439;-73
2021/09/12 12:40:28;;;;;;;5.93;3.37;;;23.00;75.80;;;;;;5011979;28;20414;-73
2021/09/12 12:43:23;;;;;;;5.33;3.13;;;22.90;69.70;;;;;;5012188;28;20495;-73
2021/09/12 12:46:09;;;;;;;4.43;2.73;;;22.90;70.70;;;;;;5028711;28;20517;-73
2021/09/12 12:49:03;;;;;;;4.53;3.10;;;23.10;71.70;;;;;;5031619;28;20464;-73
2021/09/12 12:52:02;;;;;;;3.90;2.67;;;23.20;73.40;;;;;;5031476;28;21105;-73
2021/09/12 12:54:49;;;;;;;6.00;3.30;;;23.30;73.40;;;;;;5031351;28;20410;-73
2021/09/12 12:57:35;;;;;;;5.10;3.23;;;23.40;73.80;;;;;;5031345;28;20497;-73
2021/09/12 13:00:23;;;;;;;4.50;3.20;;;23.50;69.50;;;;;;5025992;28;20450;-73
2021/09/12 13:03:08;;;;;;;6.43;3.33;;;23.90;66.60;;;;;;5031285;28;20427;-74
2021/09/12 13:05:55;;;;;;;4.00;2.73;;;24.20;65.90;;;;;;5017163;28;20937;-73
2021/09/12 13:08:45;;;;;;;7.60;3.20;;;24.70;65.60;;;;;;5042820;28;20427;-73
2021/09/12 13:11:33;;;;;;;4.73;3.20;;;25.30;62.20;;;;;;5051298;28;20486;-74
2021/09/12 13:14:18;;;;;;;5.30;2.90;;;25.50;59.90;;;;;;5035164;28;20818;-73
2021/09/12 13:17:04;;;;;;;3.90;3.07;;;25.60;57.30;;;;;;5011960;28;20422;-73
2021/09/12 13:19:50;;;;;;;3.97;2.70;;;25.80;58.40;;;;;;5011895;28;20453;-74
2021/09/12 13:22:36;;;;;;;7.03;3.00;;;25.40;55.10;;;;;;5011931;28;20418;-73
2021/09/12 13:25:23;;;;;;;8.57;2.70;;;25.10;57.70;;;;;;5011344;28;20421;-73
2021/09/12 13:28:09;;;;;;;4.83;3.10;;;25.00;58.70;;;;;;5012131;28;20449;-73
2021/09/12 13:30:55;;;;;;;6.20;3.03;;;24.90;62.50;;;;;;5011325;28;20468;-73
2021/09/12 13:33:41;;;;;;;4.17;2.90;;;24.80;61.00;;;;;;5011609;28;20422;-73
2021/09/12 13:36:27;;;;;;;5.30;3.30;;;24.70;58.30;;;;;;5019368;28;20431;-73
2021/09/12 13:39:13;;;;;;;5.13;3.00;;;24.50;61.70;;;;;;5036600;28;20468;-73
2021/09/12 13:41:59;;;;;;;3.70;3.13;;;24.50;65.30;;;;;;5050987;28;20938;-74
2021/09/12 13:44:45;;;;;;;3.80;2.67;;;24.80;65.40;;;;;;5022327;28;20701;-73
2021/09/12 13:47:31;;;;;;;4.70;3.17;;;25.30;63.40;;;;;;5013331;28;20433;-73
2021/09/12 13:50:16;;;;;;;4.60;2.83;;;25.90;59.40;;;;;;5015121;28;20418;-73
2021/09/12 13:53:02;;;;;;;4.73;3.00;;;26.40;55.30;;;;;;5014917;28;20453;-73
2021/09/12 13:55:48;;;;;;;4.60;3.20;;;26.70;53.70;;;;;;5014765;28;20470;-74
2021/09/12 13:58:35;;;;;;;5.97;3.83;;;26.90;51.50;;;;;;5017556;28;20458;-73
2021/09/12 14:01:21;;;;;;;4.90;3.70;;;27.20;50.00;;;;;;5014959;28;20434;-73
2021/09/12 14:04:06;;;;;;;3.47;2.77;;;27.50;48.40;;;;;;5014560;28;20980;-74
2021/09/12 14:06:52;;;;;;;14.97;3.20;;;27.10;46.60;;;;;;5034480;28;20496;-73
2021/09/12 14:09:38;;;;;;;4.97;2.90;;;26.70;48.60;;;;;;5050376;28;20464;-73
2021/09/12 14:12:23;;;;;;;4.57;2.73;;;25.80;49.50;;;;;;5051955;28;20439;-73
2021/09/12 14:15:11;;;;;;;4.97;2.80;;;25.80;51.10;;;;;;5032302;28;20453;-73
2021/09/12 14:17:56;;;;;;;3.93;2.77;;;25.90;52.00;;;;;;5034458;28;20418;-73
2021/09/12 14:20:42;;;;;;;6.73;2.83;;;25.70;52.40;;;;;;5034038;28;20965;-73
2021/09/12 14:23:28;;;;;;;4.00;2.90;;;25.80;52.70;;;;;;5034811;28;20437;-73
2021/09/12 14:26:13;;;;;;;3.40;2.43;;;25.90;51.20;;;;;;5033884;28;20480;-74